createdAt,value
2019-03-21T00:00:59.030Z,77.70
2019-03-21T00:01:58.893Z,78.17
2019-03-21T00:02:58.762Z,77.89
2019-03-21T00:03:58.625Z,78.55
2019-03-21T00:04:58.489Z,78.64
2019-03-21T00:05:58.351Z,78.83
2019-03-21T00:06:58.216Z,78.74
2019-03-21T00:07:58.081Z,79.30
2019-03-21T00:08:57.950Z,78.64
2019-03-21T00:09:57.812Z,78.64
2019-03-21T00:10:57.678Z,79.02
2019-03-21T00:11:57.543Z,80.53
2019-03-21T00:12:57.412Z,79.87
2019-03-21T00:14:06.605Z,80.53
2019-03-21T00:14:57.137Z,80.15
2019-03-21T00:15:57.000Z,80.15
2019-03-21T00:16:56.867Z,80.06
2019-03-21T00:17:56.729Z,79.87
2019-03-21T00:18:56.594Z,79.68
2019-03-21T00:19:56.458Z,78.83
2019-03-21T00:20:56.325Z,78.45
2019-03-21T00:21:56.189Z,79.40
2019-03-21T00:22:56.053Z,80.53
2019-03-21T00:23:55.918Z,80.25
2019-03-21T00:24:55.783Z,80.06
2019-03-21T00:25:55.648Z,80.25
2019-03-21T00:26:55.514Z,79.02
2019-03-21T00:27:55.388Z,78.74
2019-03-21T00:28:55.244Z,78.74
2019-03-21T00:29:55.109Z,79.02
2019-03-21T00:30:54.971Z,79.59
2019-03-21T00:31:54.836Z,79.30
2019-03-21T00:32:54.700Z,79.30
2019-03-21T00:33:54.562Z,79.30
2019-03-21T00:34:54.428Z,79.11
2019-03-21T00:35:54.299Z,79.97
2019-03-21T00:36:54.157Z,80.06
2019-03-21T00:37:54.021Z,79.78
2019-03-21T00:38:53.886Z,78.83
2019-03-21T00:39:53.754Z,78.36
2019-03-21T00:40:53.615Z,80.06
2019-03-21T00:41:53.482Z,80.06
2019-03-21T00:42:53.343Z,80.53
2019-03-21T00:43:53.210Z,80.15
2019-03-21T00:44:53.072Z,80.15
2019-03-21T00:45:52.940Z,80.06
2019-03-21T00:46:52.805Z,80.91
2019-03-21T00:47:52.667Z,80.82
2019-03-21T00:48:52.531Z,81.01
2019-03-21T00:49:52.395Z,81.57
2019-03-21T00:50:52.259Z,81.67
2019-03-21T00:51:52.125Z,81.48
2019-03-21T00:52:51.988Z,81.85
2019-03-21T00:53:51.853Z,81.48
2019-03-21T00:54:51.717Z,82.04
2019-03-21T00:55:51.583Z,82.04
2019-03-21T00:56:51.448Z,82.23
2019-03-21T00:57:51.310Z,82.14
2019-03-21T00:58:51.177Z,81.10
2019-03-21T00:59:51.094Z,81.10
2019-03-21T01:00:50.905Z,81.38
2019-03-21T01:01:50.768Z,81.57
2019-03-21T01:02:50.633Z,82.32
2019-03-21T01:03:50.500Z,82.32
2019-03-21T01:04:50.364Z,82.32
2019-03-21T01:05:50.228Z,82.89
2019-03-21T01:06:50.097Z,82.23
2019-03-21T01:07:49.956Z,81.48
2019-03-21T01:08:49.821Z,81.67
2019-03-21T01:09:49.686Z,82.23
2019-03-21T01:10:49.551Z,82.89
2019-03-21T01:11:49.413Z,82.89
2019-03-21T01:12:49.280Z,81.76
2019-03-21T01:13:49.142Z,81.57
2019-03-21T01:14:49.012Z,81.57
2019-03-21T01:15:48.873Z,81.48
2019-03-21T01:16:48.740Z,81.67
2019-03-21T01:17:48.601Z,81.38
2019-03-21T01:18:48.470Z,81.85
2019-03-21T01:19:48.336Z,82.04
2019-03-21T01:20:48.195Z,82.70
2019-03-21T01:21:48.059Z,82.99
2019-03-21T01:22:47.924Z,83.36
2019-03-21T01:23:47.793Z,82.80
2019-03-21T01:24:47.651Z,82.99
2019-03-21T01:25:47.517Z,81.85
2019-03-21T01:26:47.382Z,81.29
2019-03-21T01:27:47.245Z,82.04
2019-03-21T01:28:47.112Z,82.14
2019-03-21T01:29:46.975Z,82.80
2019-03-21T01:30:46.838Z,82.89
2019-03-21T01:31:46.702Z,82.89
2019-03-21T01:32:46.569Z,82.70
2019-03-21T01:33:46.430Z,82.70
2019-03-21T01:34:46.299Z,83.27
2019-03-21T01:35:46.162Z,82.80
2019-03-21T01:36:46.073Z,83.84
2019-03-21T01:37:45.890Z,82.99
2019-03-21T01:38:45.756Z,83.74
2019-03-21T01:39:45.622Z,84.03
2019-03-21T01:40:45.485Z,83.74
2019-03-21T01:41:45.346Z,83.08
2019-03-21T01:42:45.212Z,82.42
2019-03-21T01:43:45.077Z,81.76
2019-03-21T01:44:44.940Z,83.17
2019-03-21T01:45:44.803Z,83.84
2019-03-21T01:46:44.670Z,84.12
2019-03-21T01:47:44.534Z,83.65
2019-03-21T01:48:44.401Z,83.74
2019-03-21T01:49:44.263Z,81.85
2019-03-21T01:50:44.128Z,80.63
2019-03-21T01:51:43.992Z,80.15
2019-03-21T01:52:43.857Z,81.10
2019-03-21T01:53:43.733Z,81.10
2019-03-21T01:54:43.585Z,81.67
2019-03-21T01:55:43.452Z,81.85
2019-03-21T01:56:43.314Z,81.76
2019-03-21T01:57:43.181Z,82.23
2019-03-21T01:58:43.043Z,81.95
2019-03-21T01:59:42.908Z,82.04
2019-03-21T02:00:42.771Z,81.67
2019-03-21T02:01:42.636Z,81.48
2019-03-21T02:02:42.501Z,82.23
2019-03-21T02:03:42.366Z,83.17
2019-03-21T02:04:42.232Z,82.89
2019-03-21T02:05:42.095Z,82.04
2019-03-21T02:06:41.961Z,81.57
2019-03-21T02:07:41.825Z,80.44
2019-03-21T02:08:41.688Z,79.11
2019-03-21T02:09:41.551Z,80.06
2019-03-21T02:10:41.419Z,81.29
2019-03-21T02:11:41.282Z,81.48
2019-03-21T02:12:41.143Z,81.38
2019-03-21T02:13:41.009Z,81.95
2019-03-21T02:14:51.559Z,82.14
2019-03-21T02:15:40.806Z,81.95
2019-03-21T02:16:40.602Z,81.85
2019-03-21T02:17:40.464Z,81.67
2019-03-21T02:18:40.333Z,81.01
2019-03-21T02:19:40.202Z,81.10
2019-03-21T02:20:40.061Z,81.85
2019-03-21T02:21:39.926Z,81.57
2019-03-21T02:22:39.790Z,81.48
2019-03-21T02:23:39.651Z,82.32
2019-03-21T02:24:39.522Z,81.57
2019-03-21T02:25:39.384Z,81.48
2019-03-21T02:26:39.248Z,80.63
2019-03-21T02:27:39.116Z,80.25
2019-03-21T02:28:38.986Z,80.15
2019-03-21T02:29:38.838Z,80.82
2019-03-21T02:30:38.703Z,81.20
2019-03-21T02:31:38.570Z,81.20
2019-03-21T02:32:38.436Z,81.57
2019-03-21T02:33:38.298Z,81.29
2019-03-21T02:34:38.166Z,81.10
2019-03-21T02:35:38.027Z,81.20
2019-03-21T02:36:37.900Z,81.20
2019-03-21T02:37:37.754Z,81.01
2019-03-21T02:38:37.620Z,81.38
2019-03-21T02:39:37.484Z,81.38
2019-03-21T02:40:37.357Z,81.67
2019-03-21T02:41:37.216Z,81.48
2019-03-21T02:42:37.080Z,81.29
2019-03-21T02:43:36.941Z,81.01
2019-03-21T02:44:36.835Z,81.01
2019-03-21T02:45:36.672Z,81.29
2019-03-21T02:46:36.536Z,81.10
2019-03-21T02:47:36.401Z,80.06
2019-03-21T02:48:36.262Z,79.97
2019-03-21T02:49:36.126Z,81.10
2019-03-21T02:50:35.993Z,81.67
2019-03-21T02:51:35.859Z,81.76
2019-03-21T02:52:35.725Z,81.67
2019-03-21T02:53:35.585Z,81.38
2019-03-21T02:54:35.454Z,81.48
2019-03-21T02:55:35.320Z,81.20
2019-03-21T02:56:35.179Z,80.72
2019-03-21T02:57:35.051Z,81.48
2019-03-21T02:58:34.910Z,81.67
2019-03-21T02:59:34.777Z,82.23
2019-03-21T03:00:34.639Z,82.70
2019-03-21T03:01:34.509Z,82.51
2019-03-21T03:02:37.163Z,81.38
2019-03-21T03:03:34.235Z,81.48
2019-03-21T03:04:34.094Z,82.14
2019-03-21T03:05:33.961Z,82.61
2019-03-21T03:06:33.908Z,82.89
2019-03-21T03:07:33.689Z,82.51
2019-03-21T03:08:33.560Z,82.89
2019-03-21T03:09:33.416Z,82.80
2019-03-21T03:10:33.279Z,84.03
2019-03-21T03:11:33.146Z,84.12
2019-03-21T03:12:33.007Z,83.74
2019-03-21T03:13:32.873Z,84.12
2019-03-21T03:14:32.737Z,83.93
2019-03-21T03:15:32.618Z,83.65
2019-03-21T03:16:32.466Z,83.84
2019-03-21T03:17:32.331Z,84.12
2019-03-21T03:18:32.195Z,83.55
2019-03-21T03:19:32.062Z,82.80
2019-03-21T03:20:31.922Z,81.48
2019-03-21T03:21:31.788Z,81.20
2019-03-21T03:22:31.661Z,81.85
2019-03-21T03:23:31.515Z,81.67
2019-03-21T03:24:31.382Z,81.20
2019-03-21T03:25:31.245Z,80.15
2019-03-21T03:26:31.107Z,80.53
2019-03-21T03:27:30.973Z,81.10
2019-03-21T03:28:30.837Z,81.29
2019-03-21T03:29:30.702Z,80.25
2019-03-21T03:30:30.567Z,80.34
2019-03-21T03:31:30.430Z,79.97
2019-03-21T03:32:30.303Z,78.45
2019-03-21T03:33:30.173Z,77.51
2019-03-21T03:34:30.024Z,78.27
2019-03-21T03:35:29.891Z,78.45
2019-03-21T03:36:29.751Z,78.83
2019-03-21T03:37:29.616Z,78.92
2019-03-21T03:38:29.484Z,79.59
2019-03-21T03:39:29.343Z,79.97
2019-03-21T03:40:29.208Z,80.15
2019-03-21T03:41:29.071Z,80.53
2019-03-21T03:42:28.940Z,80.15
2019-03-21T03:43:28.802Z,78.74
2019-03-21T03:44:28.665Z,78.45
2019-03-21T03:45:37.424Z,77.89
2019-03-21T03:46:28.394Z,79.21
2019-03-21T03:47:28.260Z,80.34
2019-03-21T03:48:28.139Z,79.68
2019-03-21T03:49:27.988Z,79.49
2019-03-21T03:50:27.868Z,79.49
2019-03-21T03:51:27.718Z,78.55
2019-03-21T03:52:27.582Z,78.83
2019-03-21T03:53:27.444Z,79.11
2019-03-21T03:54:27.309Z,77.98
2019-03-21T03:55:27.181Z,78.74
2019-03-21T03:56:27.053Z,79.59
2019-03-21T03:57:26.901Z,80.06
2019-03-21T03:58:26.785Z,80.82
2019-03-21T03:59:26.633Z,80.82
2019-03-21T04:00:26.519Z,79.78
2019-03-21T04:01:26.358Z,78.45
2019-03-21T04:02:26.222Z,78.45
2019-03-21T04:03:26.089Z,79.02
2019-03-21T04:04:25.957Z,79.68
2019-03-21T04:05:25.819Z,79.21
2019-03-21T04:06:25.681Z,78.64
2019-03-21T04:07:25.548Z,79.30
2019-03-21T04:08:25.416Z,79.68
2019-03-21T04:09:25.277Z,80.25
2019-03-21T04:10:25.139Z,79.97
2019-03-21T04:11:25.004Z,78.17
2019-03-21T04:12:24.876Z,77.42
2019-03-21T04:13:24.732Z,77.13
2019-03-21T04:14:24.595Z,77.70
2019-03-21T04:15:24.458Z,78.08
2019-03-21T04:16:24.324Z,78.83
2019-03-21T04:17:24.188Z,79.87
2019-03-21T04:18:24.055Z,80.25
2019-03-21T04:19:23.917Z,79.87
2019-03-21T04:20:23.780Z,79.02
2019-03-21T04:21:23.646Z,79.30
2019-03-21T04:22:23.510Z,80.25
2019-03-21T04:23:23.390Z,79.97
2019-03-21T04:24:23.243Z,79.59
2019-03-21T04:25:23.100Z,79.40
2019-03-21T04:26:22.968Z,79.30
2019-03-21T04:27:22.836Z,80.34
2019-03-21T04:28:22.706Z,80.82
2019-03-21T04:29:22.559Z,80.25
2019-03-21T04:30:22.456Z,79.97
2019-03-21T04:31:22.287Z,79.97
2019-03-21T04:32:22.153Z,79.49
2019-03-21T04:33:22.952Z,79.49
2019-03-21T04:34:21.883Z,79.78
2019-03-21T04:35:21.748Z,79.49
2019-03-21T04:36:21.610Z,78.08
2019-03-21T04:37:21.473Z,77.89
2019-03-21T04:38:21.340Z,77.98
2019-03-21T04:39:21.203Z,77.32
2019-03-21T04:40:21.066Z,77.51
2019-03-21T04:41:20.937Z,77.89
2019-03-21T04:42:20.797Z,78.27
2019-03-21T04:43:20.659Z,77.42
2019-03-21T04:44:20.523Z,76.66
2019-03-21T04:45:20.390Z,76.57
2019-03-21T04:46:20.256Z,76.19
2019-03-21T04:47:20.121Z,75.90
2019-03-21T04:48:19.984Z,76.76
2019-03-21T04:49:19.848Z,76.85
2019-03-21T04:50:19.712Z,76.19
2019-03-21T04:51:19.577Z,76.76
2019-03-21T04:52:19.438Z,76.00
2019-03-21T04:53:19.303Z,76.00
2019-03-21T04:54:19.167Z,76.28
2019-03-21T04:55:19.032Z,75.71
2019-03-21T04:56:18.895Z,75.34
2019-03-21T04:57:18.760Z,75.43
2019-03-21T04:58:18.623Z,75.15
2019-03-21T04:59:18.488Z,75.05
2019-03-21T05:00:18.355Z,75.71
2019-03-21T05:01:18.219Z,75.05
2019-03-21T05:02:18.081Z,75.34
2019-03-21T05:03:17.946Z,75.62
2019-03-21T05:04:17.817Z,75.71
2019-03-21T05:05:17.675Z,76.38
2019-03-21T05:06:17.539Z,76.19
2019-03-21T05:07:17.406Z,75.71
2019-03-21T05:08:17.269Z,74.49
2019-03-21T05:09:17.132Z,73.83
2019-03-21T05:10:16.999Z,73.83
2019-03-21T05:11:16.864Z,73.26
2019-03-21T05:12:16.729Z,71.75
2019-03-21T05:13:16.593Z,71.00
2019-03-21T05:14:16.458Z,70.53
2019-03-21T05:15:16.330Z,69.86
2019-03-21T05:16:16.186Z,69.96
2019-03-21T05:17:16.052Z,70.90
2019-03-21T05:18:15.912Z,71.84
2019-03-21T05:19:15.780Z,72.32
2019-03-21T05:20:15.643Z,73.26
2019-03-21T05:21:15.505Z,73.64
2019-03-21T05:22:15.374Z,74.40
2019-03-21T05:23:15.240Z,74.40
2019-03-21T05:24:15.101Z,73.93
2019-03-21T05:25:14.966Z,73.83
2019-03-21T05:26:14.829Z,71.94
2019-03-21T05:27:14.698Z,71.94
2019-03-21T05:28:14.555Z,71.56
2019-03-21T05:29:14.422Z,71.19
2019-03-21T05:30:14.288Z,70.43
2019-03-21T05:31:14.150Z,71.09
2019-03-21T05:32:14.017Z,70.90
2019-03-21T05:33:13.884Z,72.03
2019-03-21T05:34:13.744Z,71.56
2019-03-21T05:35:13.611Z,71.84
2019-03-21T05:36:13.474Z,72.22
2019-03-21T05:37:13.344Z,71.84
2019-03-21T05:38:13.200Z,71.56
2019-03-21T05:39:13.069Z,69.96
2019-03-21T05:40:12.930Z,71.09
2019-03-21T05:41:12.793Z,71.09
2019-03-21T05:42:12.660Z,69.77
2019-03-21T05:43:12.523Z,69.77
2019-03-21T05:44:12.389Z,69.77
2019-03-21T05:45:12.258Z,68.92
2019-03-21T05:46:12.115Z,69.01
2019-03-21T05:47:11.982Z,68.63
2019-03-21T05:48:11.845Z,69.30
2019-03-21T05:49:11.708Z,69.96
2019-03-21T05:50:11.573Z,71.09
2019-03-21T05:51:11.438Z,71.19
2019-03-21T05:52:11.302Z,71.66
2019-03-21T05:53:11.167Z,72.13
2019-03-21T05:54:11.029Z,72.41
2019-03-21T05:55:10.896Z,71.75
2019-03-21T05:56:10.760Z,71.75
2019-03-21T05:57:10.626Z,70.05
2019-03-21T05:58:10.487Z,69.39
2019-03-21T05:59:10.352Z,69.77
2019-03-21T06:00:10.223Z,70.15
2019-03-21T06:01:10.083Z,71.66
2019-03-21T06:02:09.944Z,71.66
2019-03-21T06:03:09.809Z,71.75
2019-03-21T06:04:09.677Z,71.37
2019-03-21T06:05:09.537Z,69.58
2019-03-21T06:06:09.402Z,69.86
2019-03-21T06:07:09.267Z,69.96
2019-03-21T06:08:09.131Z,69.96
2019-03-21T06:09:08.993Z,70.05
2019-03-21T06:10:08.859Z,69.49
2019-03-21T06:11:08.725Z,69.01
2019-03-21T06:12:08.588Z,68.92
2019-03-21T06:13:08.453Z,70.05
2019-03-21T06:14:08.319Z,70.15
2019-03-21T06:15:08.187Z,70.24
2019-03-21T06:16:08.049Z,71.19
2019-03-21T06:17:07.913Z,71.09
2019-03-21T06:18:07.779Z,69.77
2019-03-21T06:19:07.640Z,69.39
2019-03-21T06:20:07.507Z,68.73
2019-03-21T06:21:07.373Z,68.26
2019-03-21T06:22:07.235Z,67.22
2019-03-21T06:23:07.102Z,66.75
2019-03-21T06:24:06.963Z,67.60
2019-03-21T06:25:06.832Z,68.35
2019-03-21T06:26:06.700Z,68.92
2019-03-21T06:27:14.554Z,67.41
2019-03-21T06:28:06.429Z,66.28
2019-03-21T06:29:06.292Z,65.52
2019-03-21T06:30:06.154Z,67.41
2019-03-21T06:31:06.020Z,69.01
2019-03-21T06:32:05.882Z,68.82
2019-03-21T06:33:05.749Z,68.16
2019-03-21T06:34:05.615Z,67.13
2019-03-21T06:35:05.476Z,65.14
2019-03-21T06:36:05.341Z,64.67
2019-03-21T06:37:05.208Z,63.10
2019-03-21T06:38:05.075Z,62.62
2019-03-21T06:39:04.938Z,61.58
2019-03-21T06:40:04.803Z,62.25
2019-03-21T06:41:04.668Z,63.19
2019-03-21T06:42:04.531Z,62.72
2019-03-21T06:43:04.400Z,62.81
2019-03-21T06:44:04.267Z,63.19
2019-03-21T06:45:04.126Z,62.72
2019-03-21T06:46:03.992Z,62.47
2019-03-21T06:47:03.868Z,61.99
2019-03-21T06:48:03.724Z,61.71
2019-03-21T06:49:03.594Z,60.49
2019-03-21T06:50:03.459Z,60.23
2019-03-21T06:51:03.328Z,58.53
2019-03-21T06:52:03.191Z,58.25
2019-03-21T06:53:03.397Z,58.15
2019-03-21T06:54:02.919Z,58.15
2019-03-21T06:55:02.783Z,57.96
2019-03-21T06:56:02.649Z,57.90
2019-03-21T06:57:02.807Z,57.61
2019-03-21T06:58:02.385Z,57.42
2019-03-21T06:59:02.253Z,56.29
2019-03-21T07:00:02.116Z,55.53
2019-03-21T07:01:01.982Z,54.96
2019-03-21T07:02:01.851Z,55.72
2019-03-21T07:03:01.716Z,56.20
2019-03-21T07:04:07.130Z,55.82
2019-03-21T07:05:01.452Z,55.91
2019-03-21T07:06:01.318Z,56.67
2019-03-21T07:07:08.123Z,56.32
2019-03-21T07:08:01.049Z,55.84
2019-03-21T07:09:00.921Z,55.27
2019-03-21T07:10:00.789Z,55.65
2019-03-21T07:11:00.658Z,56.60
2019-03-21T07:12:00.527Z,56.13
2019-03-21T07:13:00.386Z,54.90
2019-03-21T07:14:00.254Z,54.99
2019-03-21T07:15:00.244Z,55.75
2019-03-21T07:15:59.989Z,55.11
2019-03-21T07:17:00.823Z,54.83
2019-03-21T07:17:59.726Z,55.21
2019-03-21T07:18:59.594Z,55.77
2019-03-21T07:19:59.464Z,56.18
2019-03-21T07:21:01.129Z,56.09
2019-03-21T07:21:59.201Z,55.80
2019-03-21T07:22:59.072Z,55.80
2019-03-21T07:23:58.939Z,55.99
2019-03-21T07:24:58.806Z,56.09
2019-03-21T07:25:58.675Z,56.18
2019-03-21T07:26:58.542Z,55.99
2019-03-21T07:27:58.410Z,54.86
2019-03-21T07:28:58.281Z,55.62
2019-03-21T07:29:58.153Z,54.67
2019-03-21T07:30:58.033Z,54.10
2019-03-21T07:31:57.889Z,54.19
2019-03-21T07:32:57.757Z,54.76
2019-03-21T07:33:57.625Z,54.57
2019-03-21T07:34:57.496Z,53.91
2019-03-21T07:35:57.365Z,53.81
2019-03-21T07:36:57.241Z,53.94
2019-03-21T07:37:57.106Z,54.88
2019-03-21T07:38:56.976Z,54.32
2019-03-21T07:39:56.843Z,51.95
2019-03-21T07:40:56.714Z,50.05
2019-03-21T07:41:56.584Z,49.48
2019-03-21T07:42:56.452Z,48.41
2019-03-21T07:43:56.323Z,48.51
2019-03-21T07:44:56.192Z,49.46
2019-03-21T07:45:56.065Z,50.34
2019-03-21T07:46:55.934Z,50.05
2019-03-21T07:47:55.802Z,49.38
2019-03-21T07:48:55.678Z,48.06
2019-03-21T07:49:55.540Z,47.68
2019-03-21T07:50:55.412Z,47.11
2019-03-21T07:51:55.282Z,47.32
2019-03-21T07:52:55.153Z,47.71
2019-03-21T07:53:55.024Z,47.13
2019-03-21T07:54:54.893Z,45.43
2019-03-21T07:55:54.762Z,44.85
2019-03-21T07:56:54.634Z,44.01
2019-03-21T07:57:54.507Z,44.20
2019-03-21T07:58:54.375Z,44.67
2019-03-21T07:59:54.250Z,44.21
2019-03-21T08:00:54.117Z,44.21
2019-03-21T08:01:53.991Z,44.02
2019-03-21T08:02:53.862Z,44.69
2019-03-21T08:03:53.728Z,46.59
2019-03-21T08:04:53.601Z,47.16
2019-03-21T08:05:53.469Z,46.78
2019-03-21T08:06:53.344Z,46.59
2019-03-21T08:07:53.213Z,46.49
2019-03-21T08:08:53.088Z,47.73
2019-03-21T08:09:52.957Z,47.73
2019-03-21T08:10:52.839Z,47.92
2019-03-21T08:11:52.696Z,47.34
2019-03-21T08:12:52.572Z,46.97
2019-03-21T08:13:52.442Z,46.78
2019-03-21T08:14:52.310Z,46.21
2019-03-21T08:15:52.183Z,46.40
2019-03-21T08:16:52.054Z,46.30
2019-03-21T08:17:51.924Z,45.73
2019-03-21T08:18:51.800Z,45.45
2019-03-21T08:19:51.666Z,45.38
2019-03-21T08:20:57.334Z,45.47
2019-03-21T08:21:51.411Z,45.19
2019-03-21T08:22:51.285Z,44.90
2019-03-21T08:23:51.156Z,44.90
2019-03-21T08:24:51.025Z,45.19
2019-03-21T08:25:50.901Z,44.34
2019-03-21T08:26:50.770Z,43.10
2019-03-21T08:27:51.770Z,43.38
2019-03-21T08:28:50.525Z,42.91
2019-03-21T08:29:50.383Z,43.01
2019-03-21T08:30:50.256Z,43.19
2019-03-21T08:31:50.128Z,43.67
2019-03-21T08:32:50.000Z,43.10
2019-03-21T08:33:49.873Z,43.67
2019-03-21T08:34:49.747Z,44.07
2019-03-21T08:35:49.615Z,44.17
2019-03-21T08:36:49.497Z,43.69
2019-03-21T08:37:49.363Z,44.07
2019-03-21T08:38:49.240Z,43.52
2019-03-21T08:39:49.109Z,43.05
2019-03-21T08:40:48.985Z,43.52
2019-03-21T08:41:48.858Z,43.05
2019-03-21T08:42:48.723Z,43.73
2019-03-21T08:43:48.601Z,42.50
2019-03-21T08:44:48.472Z,41.74
2019-03-21T08:45:48.345Z,41.47
2019-03-21T08:46:48.217Z,41.83
2019-03-21T08:47:48.101Z,41.83
2019-03-21T08:48:47.975Z,42.40
2019-03-21T08:49:47.839Z,42.40
2019-03-21T08:50:47.712Z,41.64
2019-03-21T08:51:47.583Z,41.26
2019-03-21T08:52:47.455Z,40.69
2019-03-21T08:53:47.338Z,40.69
2019-03-21T08:54:47.204Z,40.50
2019-03-21T08:55:47.077Z,40.79
2019-03-21T08:56:46.950Z,41.64
2019-03-21T08:57:46.825Z,42.71
2019-03-21T08:58:46.703Z,42.14
2019-03-21T08:59:48.069Z,41.00
2019-03-21T09:00:46.444Z,40.62
2019-03-21T09:01:46.318Z,39.67
2019-03-21T09:02:46.193Z,38.62
2019-03-21T09:03:46.067Z,38.53
2019-03-21T09:04:46.014Z,39.19
2019-03-21T09:05:45.819Z,39.97
2019-03-21T09:06:45.689Z,39.59
2019-03-21T09:07:45.563Z,39.40
2019-03-21T09:08:45.438Z,39.61
2019-03-21T09:09:45.312Z,38.47
2019-03-21T09:10:45.193Z,38.28
2019-03-21T09:11:45.062Z,38.37
2019-03-21T09:12:44.939Z,38.47
2019-03-21T09:13:44.810Z,38.09
2019-03-21T09:14:44.684Z,37.71
2019-03-21T09:15:44.558Z,38.09
2019-03-21T09:16:44.432Z,37.32
2019-03-21T09:17:44.311Z,37.32
2019-03-21T09:18:44.184Z,37.23
2019-03-21T09:19:44.060Z,37.13
2019-03-21T09:20:43.935Z,37.32
2019-03-21T09:21:43.807Z,38.37
2019-03-21T09:22:43.681Z,38.68
2019-03-21T09:23:43.559Z,38.10
2019-03-21T09:24:43.434Z,37.63
2019-03-21T09:25:43.313Z,36.96
2019-03-21T09:26:43.184Z,36.01
2019-03-21T09:27:43.059Z,36.60
2019-03-21T09:28:42.936Z,36.30
2019-03-21T09:29:53.054Z,35.82
2019-03-21T09:30:42.686Z,36.01
2019-03-21T09:31:42.559Z,37.17
2019-03-21T09:32:42.438Z,35.82
2019-03-21T09:33:42.315Z,35.53
2019-03-21T09:34:42.189Z,35.93
2019-03-21T09:35:42.062Z,35.74
2019-03-21T09:36:41.938Z,35.74
2019-03-21T09:37:41.815Z,35.66
2019-03-21T09:38:41.692Z,34.03
2019-03-21T09:39:41.570Z,34.23
2019-03-21T09:40:41.441Z,33.76
2019-03-21T09:41:41.319Z,33.47
2019-03-21T09:42:41.197Z,33.28
2019-03-21T09:43:41.072Z,34.14
2019-03-21T09:44:40.947Z,34.61
2019-03-21T09:45:40.825Z,34.61
2019-03-21T09:46:50.313Z,34.23
2019-03-21T09:47:40.576Z,34.23
2019-03-21T09:48:40.453Z,34.71
2019-03-21T09:49:40.331Z,34.90
2019-03-21T09:50:40.206Z,35.00
2019-03-21T09:51:40.083Z,35.49
2019-03-21T09:52:39.960Z,34.73
2019-03-21T09:53:39.837Z,33.37
2019-03-21T09:54:39.711Z,33.37
2019-03-21T09:55:39.611Z,33.95
2019-03-21T09:56:39.470Z,33.95
2019-03-21T09:57:39.343Z,33.47
2019-03-21T09:58:39.221Z,33.87
2019-03-21T09:59:39.098Z,33.87
2019-03-21T10:00:38.973Z,33.97
2019-03-21T10:01:38.851Z,33.22
2019-03-21T10:02:38.727Z,33.50
2019-03-21T10:03:38.604Z,32.24
2019-03-21T10:04:38.482Z,31.96
2019-03-21T10:05:38.358Z,31.77
2019-03-21T10:06:38.235Z,31.37
2019-03-21T10:07:38.110Z,31.96
2019-03-21T10:08:37.986Z,32.65
2019-03-21T10:09:37.867Z,33.22
2019-03-21T10:10:37.742Z,31.40
2019-03-21T10:11:37.618Z,29.88
2019-03-21T10:12:37.496Z,30.07
2019-03-21T10:13:37.372Z,31.21
2019-03-21T10:14:37.249Z,30.35
2019-03-21T10:15:37.128Z,29.02
2019-03-21T10:16:37.003Z,28.91
2019-03-21T10:17:36.882Z,30.07
2019-03-21T10:18:36.758Z,29.88
2019-03-21T10:19:36.634Z,29.11
2019-03-21T10:20:36.516Z,29.30
2019-03-21T10:21:43.373Z,29.22
2019-03-21T10:22:36.272Z,29.02
2019-03-21T10:23:36.143Z,28.73
2019-03-21T10:24:36.026Z,30.37
2019-03-21T10:25:35.898Z,29.03
2019-03-21T10:26:35.780Z,28.66
2019-03-21T10:27:35.659Z,29.52
2019-03-21T10:28:35.534Z,29.44
2019-03-21T10:29:35.412Z,28.86
2019-03-21T10:30:35.289Z,28.27
2019-03-21T10:31:35.166Z,28.65
2019-03-21T10:32:35.045Z,29.05
2019-03-21T10:33:34.922Z,28.66
2019-03-21T10:34:34.802Z,27.98
2019-03-21T10:35:34.727Z,28.28
2019-03-21T10:36:34.556Z,28.77
2019-03-21T10:37:34.433Z,29.27
2019-03-21T10:38:34.309Z,27.93
2019-03-21T10:39:34.189Z,27.34
2019-03-21T10:40:34.067Z,27.34
2019-03-21T10:41:33.946Z,26.76
2019-03-21T10:42:33.824Z,26.00
2019-03-21T10:43:33.700Z,25.90
2019-03-21T10:44:33.580Z,26.86
2019-03-21T10:45:33.457Z,25.35
2019-03-21T10:46:33.338Z,24.96
2019-03-21T10:47:33.214Z,25.52
2019-03-21T10:48:33.093Z,24.68
2019-03-21T10:49:32.974Z,24.87
2019-03-21T10:50:32.849Z,25.15
2019-03-21T10:51:32.727Z,25.06
2019-03-21T10:52:32.607Z,24.10
2019-03-21T10:53:32.486Z,23.80
2019-03-21T10:54:32.366Z,24.09
2019-03-21T10:55:32.243Z,24.48
2019-03-21T10:56:32.120Z,24.46
2019-03-21T10:57:32.002Z,24.85
2019-03-21T10:58:31.880Z,25.63
2019-03-21T10:59:31.757Z,25.73
2019-03-21T11:00:31.636Z,25.92
2019-03-21T11:01:31.516Z,23.99
2019-03-21T11:02:31.391Z,22.94
2019-03-21T11:03:31.269Z,23.42
2019-03-21T11:04:31.149Z,24.39
2019-03-21T11:05:31.029Z,23.91
2019-03-21T11:06:30.909Z,24.02
2019-03-21T11:07:30.786Z,23.07
2019-03-21T11:08:30.665Z,22.78
2019-03-21T11:09:30.542Z,22.60
2019-03-21T11:10:30.423Z,23.46
2019-03-21T11:11:30.307Z,22.30
2019-03-21T11:12:30.180Z,21.24
2019-03-21T11:13:30.059Z,20.85
2019-03-21T11:14:29.942Z,21.72
2019-03-21T11:15:29.816Z,22.40
2019-03-21T11:16:31.500Z,21.74
2019-03-21T11:17:29.579Z,20.51
2019-03-21T11:18:35.891Z,20.12
2019-03-21T11:19:29.338Z,19.37
2019-03-21T11:20:29.215Z,19.27
2019-03-21T11:21:29.100Z,17.72
2019-03-21T11:22:28.973Z,17.82
2019-03-21T11:23:28.852Z,17.43
2019-03-21T11:24:28.738Z,17.50
2019-03-21T11:25:28.614Z,19.71
2019-03-21T11:26:28.496Z,19.23
2019-03-21T11:27:28.374Z,20.10
2019-03-21T11:28:28.254Z,20.78
2019-03-21T11:29:28.135Z,19.45
2019-03-21T11:30:28.015Z,20.03
2019-03-21T11:31:27.897Z,19.36
2019-03-21T11:32:27.772Z,20.41
2019-03-21T11:33:27.653Z,18.77
2019-03-21T11:34:27.533Z,19.54
2019-03-21T11:35:27.412Z,19.35
2019-03-21T11:36:37.809Z,18.68
2019-03-21T11:37:27.171Z,18.00
2019-03-21T11:38:27.052Z,19.24
2019-03-21T11:39:26.932Z,18.57
2019-03-21T11:40:26.825Z,18.76
2019-03-21T11:41:26.699Z,18.96
2019-03-21T11:42:26.721Z,19.05
2019-03-21T11:43:26.451Z,19.92
2019-03-21T11:44:26.347Z,20.39
2019-03-21T11:45:26.220Z,20.12
2019-03-21T11:46:26.107Z,21.75
2019-03-21T11:47:25.972Z,20.32
2019-03-21T11:48:25.855Z,19.74
2019-03-21T11:49:25.731Z,19.36
2019-03-21T11:50:25.613Z,21.09
2019-03-21T11:51:25.506Z,20.42
2019-03-21T11:52:25.373Z,19.38
2019-03-21T11:53:25.252Z,18.89
2019-03-21T11:54:25.136Z,20.41
2019-03-21T11:55:25.016Z,21.67
2019-03-21T11:56:24.904Z,21.28
2019-03-21T11:57:24.771Z,21.20
2019-03-21T11:58:24.654Z,20.14
2019-03-21T11:59:24.596Z,19.37
2019-03-21T12:00:24.421Z,18.98
2019-03-21T12:01:24.292Z,20.14
2019-03-21T12:02:27.303Z,21.38
2019-03-21T12:03:24.447Z,20.81
2019-03-21T12:04:23.936Z,20.98
2019-03-21T12:05:23.815Z,20.32
2019-03-21T12:06:23.695Z,19.94
2019-03-21T12:07:23.574Z,19.56
2019-03-21T12:08:23.454Z,21.09
2019-03-21T12:09:23.336Z,21.65
2019-03-21T12:10:23.216Z,22.70
2019-03-21T12:11:23.149Z,21.72
2019-03-21T12:12:22.979Z,21.72
2019-03-21T12:13:22.856Z,21.07
2019-03-21T12:14:22.736Z,21.55
2019-03-21T12:15:22.617Z,22.32
2019-03-21T12:16:22.494Z,21.18
2019-03-21T12:17:22.377Z,19.17
2019-03-21T12:18:22.256Z,18.59
2019-03-21T12:19:22.137Z,18.88
2019-03-21T12:20:22.015Z,18.78
2019-03-21T12:21:21.903Z,19.45
2019-03-21T12:22:30.015Z,18.02
2019-03-21T12:23:21.659Z,16.60
2019-03-21T12:24:21.535Z,15.54
2019-03-21T12:25:21.416Z,16.13
2019-03-21T12:26:21.305Z,17.66
2019-03-21T12:27:21.177Z,17.66
2019-03-21T12:28:21.054Z,17.96
2019-03-21T12:29:20.935Z,18.91
2019-03-21T12:30:20.815Z,19.78
2019-03-21T12:31:20.693Z,18.33
2019-03-21T12:32:20.577Z,19.67
2019-03-21T12:33:20.457Z,19.00
2019-03-21T12:34:20.336Z,19.38
2019-03-21T12:35:20.215Z,19.58
2019-03-21T12:36:20.096Z,19.00
2019-03-21T12:37:19.977Z,19.97
2019-03-21T12:38:19.857Z,20.17
2019-03-21T12:39:19.739Z,19.30
2019-03-21T12:40:19.618Z,20.17
2019-03-21T12:41:19.499Z,21.04
2019-03-21T12:42:19.380Z,20.95
2019-03-21T12:43:19.257Z,21.14
2019-03-21T12:44:19.139Z,21.33
2019-03-21T12:45:19.021Z,22.09
2019-03-21T12:46:18.903Z,21.15
2019-03-21T12:47:30.589Z,20.20
2019-03-21T12:48:18.662Z,20.50
2019-03-21T12:49:18.543Z,20.28
2019-03-21T12:50:18.427Z,20.56
2019-03-21T12:51:18.302Z,21.42